createdAt,value
2022-11-13T00:01:35.275Z,9.81
2022-11-13T00:16:36.808Z,10.37
2022-11-13T00:31:38.360Z,9.98
2022-11-13T00:46:39.834Z,10.12
2022-11-13T01:01:41.394Z,9.84
2022-11-13T01:16:42.927Z,10.37
2022-11-13T01:31:44.400Z,9.86
2022-11-13T01:46:48.777Z,9.89
2022-11-13T02:01:50.380Z,9.91
2022-11-13T02:16:53.593Z,9.76
2022-11-13T02:31:55.821Z,10.15
2022-11-13T02:46:57.402Z,10.14
2022-11-13T03:01:58.889Z,10.05
2022-11-13T03:17:00.397Z,10.11
2022-11-13T03:32:03.353Z,10.13
2022-11-13T03:47:04.846Z,10.01
2022-11-13T04:02:06.366Z,9.90
2022-11-13T04:17:07.941Z,9.99
2022-11-13T04:32:09.418Z,10.01
2022-11-13T04:47:10.936Z,10.08
2022-11-13T05:02:12.449Z,9.80
2022-11-13T05:17:14.357Z,10.00
2022-11-13T05:32:15.897Z,9.89
2022-11-13T05:47:17.382Z,10.12
2022-11-13T06:02:18.899Z,10.00
2022-11-13T06:17:20.436Z,10.23
2022-11-13T06:32:21.910Z,10.34
2022-11-13T06:47:23.359Z,10.58
2022-11-13T07:02:24.842Z,10.61
2022-11-13T07:17:27.981Z,10.92
2022-11-13T07:32:29.437Z,11.30
2022-11-13T07:47:30.962Z,11.78
2022-11-13T08:02:32.485Z,11.43
2022-11-13T08:17:33.988Z,11.28
2022-11-13T08:32:35.436Z,11.20
2022-11-13T08:47:37.118Z,11.78
2022-11-13T09:02:38.654Z,12.37
2022-11-13T09:17:40.379Z,12.27
2022-11-13T09:32:41.878Z,11.87
2022-11-13T09:47:44.768Z,12.68
2022-11-13T10:02:55.119Z,12.12
2022-11-13T10:18:02.353Z,12.00
2022-11-13T10:33:08.313Z,12.54
2022-11-13T10:48:19.812Z,12.55
2022-11-13T11:03:24.918Z,13.18
2022-11-13T11:18:34.279Z,12.62
2022-11-13T11:33:37.556Z,12.12
2022-11-13T11:48:39.408Z,12.15
2022-11-13T12:03:40.886Z,12.01
2022-11-13T12:19:01.271Z,11.86
2022-11-13T12:34:19.034Z,12.04
2022-11-13T12:49:23.334Z,12.55
2022-11-13T13:04:27.919Z,12.80
2022-11-13T13:19:30.892Z,12.66
2022-11-13T13:34:41.293Z,12.19
2022-11-13T13:49:42.828Z,12.18
2022-11-13T14:04:48.395Z,11.77
2022-11-13T14:19:51.122Z,11.04
2022-11-13T14:34:54.154Z,10.52
2022-11-13T14:49:55.660Z,9.98
2022-11-13T15:04:57.115Z,10.09
2022-11-13T15:19:58.617Z,9.59
2022-11-13T15:35:00.107Z,9.17
2022-11-13T15:50:13.464Z,9.21
2022-11-13T16:05:16.483Z,8.15
2022-11-13T16:20:18.176Z,8.25
2022-11-13T16:35:20.044Z,8.16
2022-11-13T16:50:28.067Z,8.93
2022-11-13T17:05:29.606Z,9.38
2022-11-13T17:20:31.092Z,8.73
2022-11-13T17:35:32.534Z,8.01
2022-11-13T17:50:34.103Z,7.80
2022-11-13T18:05:40.539Z,7.31
2022-11-13T18:20:42.379Z,6.82
2022-11-13T18:35:43.945Z,6.89
2022-11-13T18:50:54.565Z,7.10
2022-11-13T19:05:56.011Z,7.04
2022-11-13T19:20:57.473Z,7.05
2022-11-13T19:35:58.926Z,6.53
2022-11-13T19:51:04.270Z,6.55
2022-11-13T20:06:06.298Z,6.98
2022-11-13T20:21:07.878Z,6.33
2022-11-13T20:36:09.666Z,6.48
2022-11-13T20:51:13.426Z,6.26
2022-11-13T21:06:16.354Z,6.21
2022-11-13T21:21:19.500Z,6.26
2022-11-13T21:36:22.274Z,5.92
2022-11-13T21:51:23.750Z,6.00
2022-11-13T22:16:09.494Z,6.39
2022-11-13T22:31:15.551Z,6.42
2022-11-13T22:46:18.261Z,5.85
2022-11-13T23:01:24.533Z,6.27
2022-11-13T23:16:26.873Z,6.65
2022-11-13T23:31:28.355Z,5.91
2022-11-13T23:46:29.795Z,7.35
